createdAt,value
2017-09-06T00:01:50.642Z,19.73
2017-09-06T00:04:18.255Z,18.47
2017-09-06T00:06:45.884Z,17.80
2017-09-06T00:09:13.500Z,19.43
2017-09-06T00:11:41.133Z,17.53
2017-09-06T00:14:08.759Z,18.33
2017-09-06T00:16:36.367Z,17.57
2017-09-06T00:19:04.809Z,18.10
2017-09-06T00:21:32.454Z,18.37
2017-09-06T00:24:00.055Z,19.23
2017-09-06T00:26:27.667Z,17.80
2017-09-06T00:28:55.278Z,18.77
2017-09-06T00:31:22.899Z,18.33
2017-09-06T00:33:50.511Z,18.40
2017-09-06T00:36:18.139Z,18.20
2017-09-06T00:38:45.785Z,17.53
2017-09-06T00:41:13.387Z,18.23
2017-09-06T00:43:41.008Z,17.97
2017-09-06T00:46:08.607Z,20.03
2017-09-06T00:48:36.211Z,18.00
2017-09-06T00:51:03.833Z,19.17
2017-09-06T00:53:31.464Z,19.10
2017-09-06T00:55:59.076Z,17.60
2017-09-06T00:58:26.707Z,19.47
2017-09-06T01:00:54.347Z,20.27
2017-09-06T01:03:21.951Z,19.20
2017-09-06T01:05:49.569Z,20.47
2017-09-06T01:08:17.211Z,19.50
2017-09-06T01:10:44.858Z,20.67
2017-09-06T01:13:12.495Z,18.03
2017-09-06T01:15:40.181Z,18.77
2017-09-06T01:18:07.816Z,15.93
2017-09-06T01:20:35.428Z,15.27
2017-09-06T01:23:03.042Z,16.80
2017-09-06T01:25:31.278Z,15.63
2017-09-06T01:27:58.892Z,13.50
2017-09-06T01:30:26.530Z,14.77
2017-09-06T01:32:54.149Z,13.73
2017-09-06T01:35:21.786Z,12.93
2017-09-06T01:37:49.412Z,12.90
2017-09-06T01:40:17.026Z,9.70
2017-09-06T01:42:44.644Z,10.60
2017-09-06T01:45:12.303Z,10.03
2017-09-06T01:47:39.932Z,9.03
2017-09-06T01:50:07.546Z,9.27
2017-09-06T01:52:35.173Z,8.67
2017-09-06T01:55:03.424Z,9.00
2017-09-06T01:57:31.064Z,7.93
2017-09-06T01:59:58.693Z,7.47
2017-09-06T02:02:26.360Z,7.63
2017-09-06T02:04:54.014Z,7.60
2017-09-06T02:07:21.648Z,6.97
2017-09-06T02:09:49.257Z,7.57
2017-09-06T02:12:16.891Z,7.57
2017-09-06T02:14:44.479Z,7.70
2017-09-06T02:17:12.170Z,7.43
2017-09-06T02:19:39.768Z,6.40
2017-09-06T02:22:07.369Z,7.00
2017-09-06T02:24:34.996Z,6.73
2017-09-06T02:27:02.641Z,6.60
2017-09-06T02:29:30.322Z,6.57
2017-09-06T02:31:57.967Z,6.63
2017-09-06T02:34:25.593Z,7.63
2017-09-06T02:36:53.268Z,7.00
2017-09-06T02:39:20.895Z,7.60
2017-09-06T02:41:48.514Z,7.70
2017-09-06T02:44:16.108Z,7.90
2017-09-06T02:46:43.711Z,8.87
2017-09-06T02:49:11.333Z,8.60
2017-09-06T02:51:38.977Z,9.40
2017-09-06T02:54:06.594Z,9.53
2017-09-06T02:56:34.194Z,10.03
2017-09-06T02:59:01.814Z,8.70
2017-09-06T03:01:29.436Z,10.20
2017-09-06T03:03:57.038Z,9.50
2017-09-06T03:06:24.679Z,9.53
2017-09-06T03:08:52.287Z,9.13
2017-09-06T03:11:19.894Z,8.30
2017-09-06T03:13:48.370Z,9.30
2017-09-06T03:16:15.994Z,8.70
2017-09-06T03:18:43.622Z,8.30
2017-09-06T03:21:11.221Z,8.90
2017-09-06T03:23:38.825Z,9.77
2017-09-06T03:26:06.483Z,9.37
2017-09-06T03:28:34.107Z,9.20
2017-09-06T03:31:01.733Z,9.70
2017-09-06T03:33:29.353Z,8.43
2017-09-06T03:35:56.982Z,9.10
2017-09-06T03:38:24.591Z,8.17
2017-09-06T03:40:52.215Z,8.60
2017-09-06T03:43:19.834Z,8.77
2017-09-06T03:45:47.449Z,7.80
2017-09-06T03:48:16.001Z,7.00
2017-09-06T03:50:43.637Z,7.13
2017-09-06T03:53:11.265Z,6.07
2017-09-06T03:55:39.825Z,7.20
2017-09-06T03:58:07.441Z,5.03
2017-09-06T04:00:35.069Z,6.60
2017-09-06T04:03:02.682Z,6.30
2017-09-06T04:05:30.668Z,5.30
2017-09-06T04:07:58.289Z,5.77
2017-09-06T04:10:25.916Z,5.80
2017-09-06T04:12:53.864Z,5.90
2017-09-06T04:15:21.491Z,5.97
2017-09-06T04:17:49.119Z,5.07
2017-09-06T04:20:16.772Z,5.30
2017-09-06T04:22:44.400Z,5.40
2017-09-06T04:25:12.037Z,5.10
2017-09-06T04:27:39.684Z,5.17
2017-09-06T04:30:07.307Z,5.37
2017-09-06T04:32:34.956Z,4.77
2017-09-06T04:35:02.568Z,5.60
2017-09-06T04:37:30.177Z,5.37
2017-09-06T04:39:57.785Z,5.80
2017-09-06T04:42:25.405Z,5.40
2017-09-06T04:44:53.051Z,5.40
2017-09-06T04:47:20.648Z,5.77
2017-09-06T04:49:48.269Z,5.70
2017-09-06T04:52:15.890Z,5.20
2017-09-06T04:54:43.516Z,5.50
2017-09-06T05:00:20.095Z,5.27
2017-09-06T05:02:47.751Z,5.67
2017-09-06T05:05:15.367Z,5.43
2017-09-06T05:07:43.000Z,6.30
2017-09-06T05:10:10.611Z,6.50
2017-09-06T05:12:38.231Z,7.30
2017-09-06T05:15:05.834Z,6.87
2017-09-06T05:17:33.431Z,7.87
2017-09-06T05:20:01.059Z,7.50
2017-09-06T05:22:28.705Z,8.40
2017-09-06T05:24:56.326Z,7.40
2017-09-06T05:27:23.930Z,9.07
2017-09-06T05:29:51.602Z,9.73
2017-09-06T05:32:19.181Z,9.10
2017-09-06T05:34:46.807Z,10.70
2017-09-06T05:37:14.438Z,11.97
2017-09-06T05:39:42.048Z,13.30
2017-09-06T05:42:09.681Z,11.37
2017-09-06T05:44:37.283Z,13.10
2017-09-06T05:47:04.901Z,10.57
2017-09-06T05:49:32.537Z,12.43
2017-09-06T05:52:00.197Z,11.67
2017-09-06T05:54:27.832Z,10.93
2017-09-06T05:56:55.439Z,11.10
2017-09-06T05:59:23.064Z,11.47
2017-09-06T06:01:50.667Z,10.63
2017-09-06T06:04:18.278Z,11.90
2017-09-06T06:06:45.911Z,11.87
2017-09-06T06:09:13.519Z,10.87
2017-09-06T06:11:41.135Z,11.53
2017-09-06T06:14:08.762Z,11.13
2017-09-06T06:16:36.370Z,11.70
2017-09-06T06:19:04.020Z,12.53
2017-09-06T06:21:31.730Z,12.30
2017-09-06T06:23:59.940Z,10.40
2017-09-06T06:26:27.573Z,10.67
2017-09-06T06:28:55.183Z,12.20
2017-09-06T06:31:22.795Z,12.90
2017-09-06T06:33:50.396Z,13.07
2017-09-06T06:36:18.014Z,12.93
2017-09-06T06:38:45.611Z,12.10
2017-09-06T06:41:13.262Z,13.33
2017-09-06T06:43:40.859Z,12.77
2017-09-06T06:46:08.501Z,12.70
2017-09-06T06:48:36.142Z,13.30
2017-09-06T06:51:03.939Z,12.70
2017-09-06T06:53:31.545Z,14.80
2017-09-06T06:55:59.142Z,13.93
2017-09-06T06:58:26.755Z,14.83
2017-09-06T07:00:54.704Z,15.20
2017-09-06T07:03:22.430Z,14.60
2017-09-06T07:05:50.051Z,15.97
2017-09-06T07:08:17.666Z,15.60
2017-09-06T07:10:45.305Z,15.10
2017-09-06T07:13:12.938Z,15.43
2017-09-06T07:15:40.546Z,13.87
2017-09-06T07:18:08.150Z,11.90
2017-09-06T07:20:35.779Z,13.60
2017-09-06T07:23:03.405Z,11.20
2017-09-06T07:25:31.055Z,9.93
2017-09-06T07:27:58.684Z,8.73
2017-09-06T07:30:26.344Z,8.17
2017-09-06T07:32:53.969Z,8.40
2017-09-06T07:35:21.590Z,7.40
2017-09-06T07:37:49.230Z,7.73
2017-09-06T07:40:16.847Z,7.67
2017-09-06T07:42:44.469Z,7.40
2017-09-06T07:45:12.104Z,6.63
2017-09-06T07:47:39.742Z,6.37
2017-09-06T07:50:07.391Z,4.80
2017-09-06T07:52:35.036Z,4.83
2017-09-06T07:55:02.660Z,3.37
2017-09-06T07:57:30.298Z,2.43
2017-09-06T07:59:57.920Z,2.00
2017-09-06T08:02:25.536Z,1.60
2017-09-06T08:04:53.204Z,2.00
2017-09-06T08:07:20.825Z,1.90
2017-09-06T08:09:48.473Z,1.60
2017-09-06T08:12:16.094Z,1.17
2017-09-06T08:14:43.724Z,1.10
2017-09-06T08:17:11.615Z,0.80
2017-09-06T08:19:39.255Z,0.90
2017-09-06T08:22:06.900Z,0.80
2017-09-06T08:24:34.548Z,1.10
2017-09-06T08:27:02.235Z,0.70
2017-09-06T08:29:29.921Z,0.90
2017-09-06T08:31:57.547Z,1.13
2017-09-06T08:34:25.168Z,1.03
2017-09-06T08:36:52.789Z,1.40
2017-09-06T08:39:20.424Z,2.10
2017-09-06T08:41:48.064Z,2.17
2017-09-06T08:44:15.683Z,2.60
2017-09-06T08:46:43.337Z,2.67
2017-09-06T08:49:10.970Z,2.50
2017-09-06T08:51:38.594Z,2.83
2017-09-06T08:54:06.220Z,3.20
2017-09-06T08:56:33.856Z,4.00
2017-09-06T08:59:01.540Z,3.67
2017-09-06T09:01:29.157Z,3.93
2017-09-06T09:03:56.781Z,4.10
2017-09-06T09:06:24.480Z,3.80
2017-09-06T09:08:52.248Z,4.70
2017-09-06T09:11:19.875Z,5.13
2017-09-06T09:13:47.499Z,4.93
2017-09-06T09:16:15.116Z,5.40
2017-09-06T09:18:42.752Z,5.20
2017-09-06T09:21:10.382Z,5.00
2017-09-06T09:23:38.005Z,5.70
2017-09-06T09:26:05.657Z,5.60
2017-09-06T09:28:33.302Z,5.93
2017-09-06T09:31:00.929Z,6.00
2017-09-06T09:33:28.588Z,6.77
2017-09-06T09:35:56.501Z,7.00
2017-09-06T09:38:24.143Z,7.73
2017-09-06T09:40:51.798Z,7.40
2017-09-06T09:43:19.449Z,8.13
2017-09-06T09:45:47.067Z,6.43
2017-09-06T09:48:15.187Z,6.57
2017-09-06T09:50:42.838Z,6.13
2017-09-06T09:53:10.452Z,5.80
2017-09-06T09:55:38.100Z,5.30
2017-09-06T09:58:05.729Z,5.60
2017-09-06T10:00:34.109Z,4.70
2017-09-06T10:03:01.767Z,4.53
2017-09-06T10:05:29.420Z,3.03
2017-09-06T10:07:57.043Z,3.40
2017-09-06T10:10:24.661Z,2.73
2017-09-06T10:12:52.525Z,2.73
2017-09-06T10:15:20.162Z,2.20
2017-09-06T10:17:47.793Z,1.93
2017-09-06T10:20:15.500Z,1.90
2017-09-06T10:22:43.169Z,2.00
2017-09-06T10:25:10.810Z,2.13
2017-09-06T10:27:38.457Z,2.50
2017-09-06T10:30:06.116Z,2.10
2017-09-06T10:32:33.741Z,1.90
2017-09-06T10:35:01.368Z,2.10
2017-09-06T10:37:29.056Z,2.17
2017-09-06T10:39:56.717Z,2.50
2017-09-06T10:42:24.350Z,2.30
2017-09-06T10:44:51.993Z,2.40
2017-09-06T10:47:19.634Z,2.90
2017-09-06T10:49:47.255Z,2.77
2017-09-06T10:52:15.741Z,2.77
2017-09-06T10:54:43.415Z,2.50
2017-09-06T10:57:11.019Z,2.10
2017-09-06T10:59:38.636Z,3.00
2017-09-06T11:02:06.258Z,2.30
2017-09-06T11:07:24.332Z,2.27
2017-09-06T11:09:51.928Z,2.83
2017-09-06T11:12:19.548Z,2.20
2017-09-06T11:14:47.142Z,2.40
2017-09-06T11:17:15.094Z,2.27
2017-09-06T11:19:42.720Z,2.93
2017-09-06T11:22:10.312Z,2.40
2017-09-06T11:24:37.961Z,2.20
2017-09-06T11:27:05.612Z,2.40
2017-09-06T11:29:33.214Z,2.67
2017-09-06T11:32:00.867Z,2.70
2017-09-06T11:34:28.478Z,2.77
2017-09-06T11:36:56.078Z,2.60
2017-09-06T11:39:23.670Z,2.57
2017-09-06T11:41:51.317Z,2.73
2017-09-06T11:44:18.921Z,2.77
2017-09-06T11:46:46.523Z,2.60
2017-09-06T11:49:14.109Z,2.60
2017-09-06T11:51:41.730Z,2.33
2017-09-06T11:54:09.330Z,2.70
2017-09-06T11:56:36.923Z,3.07
2017-09-06T11:59:04.545Z,2.80
2017-09-06T12:01:32.184Z,2.13
2017-09-06T12:03:59.807Z,2.10
2017-09-06T12:06:27.448Z,2.67
2017-09-06T12:08:55.059Z,2.50
2017-09-06T12:11:22.656Z,2.67
2017-09-06T12:13:50.267Z,2.53
2017-09-06T12:16:17.881Z,2.67
2017-09-06T12:18:45.487Z,2.40
2017-09-06T12:21:13.084Z,2.60
2017-09-06T12:23:40.680Z,2.57
2017-09-06T12:26:08.281Z,2.37
2017-09-06T12:28:35.889Z,2.70
2017-09-06T12:31:03.485Z,3.00
2017-09-06T12:33:31.495Z,2.87
2017-09-06T12:35:59.120Z,2.77
2017-09-06T12:38:26.736Z,2.23
2017-09-06T12:40:54.342Z,2.13
2017-09-06T12:43:21.936Z,2.30
2017-09-06T12:45:49.563Z,2.70
2017-09-06T12:48:17.167Z,2.40
2017-09-06T12:50:44.784Z,2.67
2017-09-06T12:53:12.380Z,2.67
2017-09-06T12:55:39.993Z,2.17
2017-09-06T12:58:07.598Z,2.40
2017-09-06T13:00:35.217Z,2.43
2017-09-06T13:03:02.828Z,2.50
2017-09-06T13:05:30.425Z,2.80
2017-09-06T13:07:58.066Z,2.40
2017-09-06T13:10:25.711Z,2.23
2017-09-06T13:12:53.313Z,2.30
2017-09-06T13:15:21.404Z,2.13
2017-09-06T13:17:49.071Z,2.30
2017-09-06T13:20:16.710Z,2.07
2017-09-06T13:22:44.489Z,2.33
2017-09-06T13:25:12.176Z,2.30
2017-09-06T13:27:40.037Z,2.80
2017-09-06T13:30:07.660Z,2.40
2017-09-06T13:32:35.374Z,2.63
2017-09-06T13:35:03.184Z,2.30
2017-09-06T13:37:30.860Z,2.30
2017-09-06T13:39:58.741Z,2.30
2017-09-06T13:42:26.361Z,2.33
2017-09-06T13:44:53.962Z,2.63
2017-09-06T13:47:21.579Z,2.20
2017-09-06T13:49:49.177Z,3.00
2017-09-06T13:52:16.765Z,2.60
2017-09-06T13:54:44.377Z,2.03
2017-09-06T13:57:11.966Z,1.80
2017-09-06T13:59:39.566Z,2.13
2017-09-06T14:02:08.107Z,2.60
2017-09-06T14:04:35.770Z,2.10
2017-09-06T14:07:03.380Z,2.43
2017-09-06T14:09:31.002Z,2.10
2017-09-06T14:11:58.614Z,3.13
2017-09-06T14:14:26.212Z,2.60
2017-09-06T14:16:53.814Z,2.43
2017-09-06T14:19:21.476Z,3.10
2017-09-06T14:21:49.851Z,2.87
2017-09-06T14:24:17.464Z,3.00
2017-09-06T14:26:45.776Z,3.03
2017-09-06T14:29:13.355Z,2.90
2017-09-06T14:31:41.604Z,3.30
2017-09-06T14:34:09.266Z,3.10
2017-09-06T14:36:36.888Z,3.40
2017-09-06T14:39:05.818Z,2.60
2017-09-06T14:41:33.425Z,2.87
2017-09-06T14:44:01.027Z,3.10
2017-09-06T14:46:28.640Z,2.27
2017-09-06T14:48:57.158Z,2.60
2017-09-06T14:51:24.781Z,2.27
2017-09-06T14:53:53.469Z,2.00
2017-09-06T14:56:21.314Z,2.60
2017-09-06T14:58:48.898Z,2.77
2017-09-06T15:01:17.227Z,2.17
2017-09-06T15:03:44.832Z,2.10
2017-09-06T15:06:12.673Z,2.40
2017-09-06T15:08:40.305Z,2.73
2017-09-06T15:11:07.986Z,2.17
2017-09-06T15:13:35.840Z,1.90
2017-09-06T15:16:03.434Z,2.70
2017-09-06T15:18:31.084Z,2.33
2017-09-06T15:20:58.706Z,2.50
2017-09-06T15:23:26.303Z,2.37
2017-09-06T15:25:53.913Z,3.20
2017-09-06T15:28:21.517Z,2.00
2017-09-06T15:30:49.110Z,2.03
2017-09-06T15:33:16.730Z,2.17
2017-09-06T15:35:44.344Z,3.10
2017-09-06T15:38:11.984Z,2.23
2017-09-06T15:40:39.630Z,2.80
2017-09-06T15:43:14.075Z,1.90
2017-09-06T15:45:41.689Z,2.30
2017-09-06T15:48:09.299Z,2.20
2017-09-06T15:50:36.912Z,2.17
2017-09-06T15:53:04.525Z,2.30
2017-09-06T15:55:32.182Z,2.00
2017-09-06T15:57:59.773Z,2.30
2017-09-06T16:00:27.449Z,2.20
2017-09-06T16:02:55.061Z,2.43
2017-09-06T16:05:22.678Z,2.47
2017-09-06T16:07:50.304Z,2.20
2017-09-06T16:10:18.208Z,2.80
2017-09-06T16:12:53.021Z,3.10
2017-09-06T16:15:21.384Z,2.90
2017-09-06T16:17:49.065Z,3.10
2017-09-06T16:20:16.679Z,3.13
2017-09-06T16:22:44.264Z,3.10
2017-09-06T16:25:11.872Z,3.10
2017-09-06T16:27:39.506Z,2.53
2017-09-06T16:30:07.139Z,3.53
2017-09-06T16:32:36.000Z,2.70
2017-09-06T16:35:03.611Z,3.07
2017-09-06T16:37:31.259Z,3.40
2017-09-06T16:39:59.801Z,2.70
2017-09-06T16:42:28.752Z,2.90
2017-09-06T16:44:56.354Z,2.80
2017-09-06T16:47:24.038Z,3.77
2017-09-06T16:49:51.695Z,3.77
2017-09-06T16:52:19.326Z,3.20
2017-09-06T16:54:46.955Z,2.80
2017-09-06T16:57:14.578Z,4.80
2017-09-06T16:59:42.190Z,3.53
2017-09-06T17:02:09.823Z,3.67
2017-09-06T17:04:37.922Z,4.30
2017-09-06T17:07:06.126Z,2.80
2017-09-06T17:09:42.444Z,3.07
2017-09-06T17:12:10.069Z,3.83
2017-09-06T17:14:38.567Z,3.00
2017-09-06T17:17:06.215Z,3.40
2017-09-06T17:19:33.854Z,4.43
2017-09-06T17:22:01.462Z,4.00
2017-09-06T17:24:29.116Z,3.13
2017-09-06T17:26:56.732Z,2.87
2017-09-06T17:29:24.345Z,3.40
2017-09-06T17:31:51.992Z,3.40
2017-09-06T17:34:19.594Z,3.10
2017-09-06T17:36:47.197Z,3.70
2017-09-06T17:39:14.802Z,3.73
2017-09-06T17:41:44.196Z,3.73
2017-09-06T17:44:11.838Z,4.10
2017-09-06T17:46:39.798Z,3.63
2017-09-06T17:49:07.427Z,3.80
2017-09-06T17:51:35.094Z,4.00
2017-09-06T17:54:03.502Z,3.70
2017-09-06T17:56:31.138Z,3.63
2017-09-06T17:58:58.965Z,3.30
2017-09-06T18:01:26.614Z,3.77
2017-09-06T18:03:54.498Z,3.70
2017-09-06T18:06:22.129Z,3.90
2017-09-06T18:08:49.734Z,4.00
2017-09-06T18:11:17.380Z,3.80
2017-09-06T18:13:45.864Z,3.63
2017-09-06T18:16:13.466Z,4.20
2017-09-06T18:18:41.129Z,3.87
2017-09-06T18:21:08.722Z,4.80
2017-09-06T18:23:36.341Z,3.53
2017-09-06T18:26:04.826Z,4.50
2017-09-06T18:28:32.452Z,4.10
2017-09-06T18:31:00.082Z,4.77
2017-09-06T18:33:27.678Z,4.10
2017-09-06T18:35:55.353Z,4.60
2017-09-06T18:38:22.970Z,4.50
2017-09-06T18:40:50.588Z,4.87
2017-09-06T18:43:18.222Z,4.03
2017-09-06T18:45:45.841Z,4.50
2017-09-06T18:48:13.492Z,4.23
2017-09-06T18:50:41.601Z,4.20
2017-09-06T18:53:09.258Z,4.70
2017-09-06T18:55:36.865Z,3.80
2017-09-06T18:58:04.471Z,3.87
2017-09-06T19:00:32.482Z,4.27
2017-09-06T19:03:00.079Z,4.30
2017-09-06T19:08:26.932Z,3.63
2017-09-06T19:10:54.535Z,4.10
2017-09-06T19:13:22.171Z,4.73
2017-09-06T19:15:49.801Z,3.67
2017-09-06T19:18:17.396Z,4.70
2017-09-06T19:20:45.874Z,5.87
2017-09-06T19:23:13.528Z,5.10
2017-09-06T19:25:41.188Z,5.30
2017-09-06T19:28:08.837Z,5.07
2017-09-06T19:30:36.448Z,4.30
2017-09-06T19:33:04.068Z,5.20
2017-09-06T19:35:31.684Z,5.13
2017-09-06T19:38:00.011Z,5.20
2017-09-06T19:40:27.629Z,5.70
2017-09-06T19:42:55.228Z,5.10
2017-09-06T19:45:22.897Z,4.50
2017-09-06T19:47:50.537Z,5.30
2017-09-06T19:50:18.242Z,5.70
2017-09-06T19:52:45.852Z,5.27
2017-09-06T19:55:13.444Z,5.30
2017-09-06T19:57:41.055Z,5.37
2017-09-06T20:00:08.676Z,5.37
2017-09-06T20:02:36.416Z,5.50
2017-09-06T20:05:04.028Z,4.63
2017-09-06T20:07:31.895Z,4.70
2017-09-06T20:09:59.524Z,5.03
2017-09-06T20:12:27.141Z,4.43
2017-09-06T20:14:55.160Z,5.30
2017-09-06T20:17:22.820Z,5.00
2017-09-06T20:19:50.431Z,4.07
2017-09-06T20:22:18.075Z,5.27
2017-09-06T20:24:45.668Z,4.23
2017-09-06T20:27:13.279Z,4.10
2017-09-06T20:29:40.894Z,4.33
2017-09-06T20:32:08.498Z,4.57
2017-09-06T20:34:36.141Z,3.83
2017-09-06T20:37:04.549Z,3.70
2017-09-06T20:39:32.248Z,3.70
2017-09-06T20:41:59.840Z,3.93
2017-09-06T20:44:27.450Z,4.57
2017-09-06T20:46:55.397Z,5.00
2017-09-06T20:49:23.003Z,3.90
2017-09-06T20:51:50.626Z,3.53
2017-09-06T20:54:18.231Z,3.97
2017-09-06T20:56:45.862Z,4.67
2017-09-06T20:59:13.492Z,4.00
2017-09-06T21:01:41.125Z,3.70
2017-09-06T21:04:08.827Z,3.57
2017-09-06T21:06:36.441Z,3.80
2017-09-06T21:09:04.307Z,4.10
2017-09-06T21:11:31.947Z,4.07
2017-09-06T21:13:59.563Z,4.17
2017-09-06T21:16:27.199Z,4.43
2017-09-06T21:18:54.825Z,3.90
2017-09-06T21:21:22.435Z,4.43
2017-09-06T21:23:50.025Z,4.03
2017-09-06T21:26:17.627Z,4.77
2017-09-06T21:28:45.285Z,4.10
2017-09-06T21:31:12.909Z,3.53
2017-09-06T21:33:40.508Z,4.60
2017-09-06T21:36:08.106Z,3.87
2017-09-06T21:38:35.735Z,4.17
2017-09-06T21:41:03.355Z,3.60
2017-09-06T21:43:30.981Z,3.83
2017-09-06T21:45:58.637Z,4.00
2017-09-06T21:48:26.317Z,3.70
2017-09-06T21:50:53.922Z,4.20
2017-09-06T21:53:23.548Z,3.97
2017-09-06T21:55:51.155Z,4.70
2017-09-06T21:58:18.819Z,4.30
2017-09-06T22:00:47.334Z,4.87
2017-09-06T22:03:15.772Z,4.57
2017-09-06T22:05:43.395Z,4.87
2017-09-06T22:08:11.884Z,4.10
2017-09-06T22:10:39.539Z,4.73
2017-09-06T22:13:07.192Z,5.10
2017-09-06T22:15:34.838Z,4.33
2017-09-06T22:18:02.485Z,5.07
2017-09-06T22:20:30.535Z,4.90
2017-09-06T22:22:58.162Z,4.50
2017-09-06T22:25:25.789Z,3.67
2017-09-06T22:27:53.467Z,4.30
2017-09-06T22:30:21.066Z,4.57
2017-09-06T22:33:19.150Z,4.37
2017-09-06T22:35:46.744Z,4.37
2017-09-06T22:38:14.353Z,4.53
2017-09-06T22:40:43.532Z,4.00
2017-09-06T22:43:11.152Z,4.40
2017-09-06T22:45:38.773Z,4.13
2017-09-06T22:48:06.383Z,4.60
2017-09-06T22:53:16.720Z,4.53
2017-09-06T22:55:44.323Z,4.23
2017-09-06T22:58:11.954Z,4.50
2017-09-06T23:00:39.613Z,4.90
2017-09-06T23:03:07.221Z,4.83
2017-09-06T23:05:34.834Z,4.60
2017-09-06T23:08:02.420Z,4.73
2017-09-06T23:10:30.075Z,4.67
2017-09-06T23:12:57.680Z,4.90
2017-09-06T23:15:25.989Z,4.57
2017-09-06T23:17:53.643Z,4.43
2017-09-06T23:20:21.252Z,4.90
2017-09-06T23:22:48.931Z,5.07
2017-09-06T23:25:17.341Z,5.27
2017-09-06T23:27:44.960Z,4.80
2017-09-06T23:30:12.571Z,5.00
2017-09-06T23:32:40.196Z,4.47
2017-09-06T23:35:07.911Z,4.50
2017-09-06T23:37:35.518Z,4.90
2017-09-06T23:40:03.162Z,4.70
2017-09-06T23:42:30.793Z,4.60
2017-09-06T23:44:58.433Z,5.30
2017-09-06T23:47:26.094Z,5.50
2017-09-06T23:49:53.715Z,4.67
2017-09-06T23:52:21.360Z,4.53
2017-09-06T23:54:49.038Z,5.20
2017-09-06T23:57:18.247Z,5.57
2017-09-06T23:59:45.877Z,5.00
